Time;durP1;ratioP1;P1;durP2;ratioP2;P2;SDS_P1;SDS_P2;PMS_P1;PMS_P2;Temp;Humidity;BMP_temperature;BMP_pressure;BME280_temperature;BME280_humidity;BME280_pressure;Samples;Min_cycle;Max_cycle;Signal;HPM_P1;HPM_P2
2022/05/11 00:01:52;;;;;;;2.42;1.90;;;12.40;99.90;;;;;;5133933;27;20043;-78
2022/05/11 00:04:18;;;;;;;4.03;2.30;;;12.40;99.90;;;;;;5142693;27;20058;-78
2022/05/11 00:06:45;;;;;;;3.97;2.20;;;12.40;99.90;;;;;;5152793;27;20062;-78
2022/05/11 00:09:13;;;;;;;3.60;2.25;;;12.50;99.90;;;;;;5132562;27;20058;-78
2022/05/11 00:11:40;;;;;;;3.50;2.08;;;12.50;99.90;;;;;;5139755;27;20047;-78
2022/05/11 00:14:07;;;;;;;2.78;1.90;;;12.50;99.90;;;;;;5122702;27;20545;-78
2022/05/11 00:16:33;;;;;;;5.47;2.60;;;12.50;99.90;;;;;;5124247;27;20685;-79
2022/05/11 00:18:59;;;;;;;2.67;2.00;;;12.50;99.90;;;;;;5145567;27;20047;-78
2022/05/11 00:21:25;;;;;;;3.17;2.17;;;12.50;99.90;;;;;;5150484;27;20046;-78
2022/05/11 00:23:52;;;;;;;2.72;1.65;;;12.50;99.90;;;;;;5149467;27;20478;-78
2022/05/11 00:26:18;;;;;;;3.42;1.60;;;12.60;99.90;;;;;;5134731;27;20073;-78
2022/05/11 00:28:44;;;;;;;3.88;2.53;;;12.60;99.90;;;;;;5132956;27;20161;-78
2022/05/11 00:31:10;;;;;;;4.72;2.80;;;12.60;99.90;;;;;;5149726;27;20496;-78
2022/05/11 00:33:36;;;;;;;;;;;12.60;99.90;;;;;;5151182;27;20070;-78
2022/05/11 00:36:03;;;;;;;3.22;2.08;;;12.60;99.90;;;;;;5137280;27;19974;-78
2022/05/11 00:38:29;;;;;;;3.28;1.90;;;12.60;99.90;;;;;;5149327;27;20038;-78
2022/05/11 00:40:58;;;;;;;2.38;1.70;;;12.60;99.90;;;;;;5148833;27;20073;-78
2022/05/11 00:43:50;;;;;;;3.83;2.30;;;12.70;99.90;;;;;;5143010;27;20047;-77
2022/05/11 00:46:34;;;;;;;2.92;2.00;;;12.70;99.90;;;;;;5131218;27;20470;-78
2022/05/11 00:51:53;;;;;;;3.38;2.05;;;12.70;99.90;;;;;;5139328;27;20141;-78
2022/05/11 00:54:22;;;;;;;5.85;2.20;;;12.80;99.90;;;;;;5134489;27;20070;-78
2022/05/11 00:56:51;;;;;;;2.15;1.63;;;12.80;99.90;;;;;;5143012;27;20422;-78
2022/05/11 00:59:25;;;;;;;5.07;2.20;;;12.80;99.90;;;;;;5147793;27;20424;-78
2022/05/11 01:01:51;;;;;;;2.65;1.92;;;12.80;99.90;;;;;;5139949;27;20037;-78
2022/05/11 01:04:21;;;;;;;3.42;2.28;;;12.80;99.90;;;;;;5134933;27;20112;-78
2022/05/11 01:06:47;;;;;;;4.28;2.50;;;12.90;99.90;;;;;;5115048;27;20134;-78
2022/05/11 01:09:13;;;;;;;5.30;3.22;;;12.90;99.90;;;;;;5115760;27;20045;-78
2022/05/11 01:12:01;;;;;;;3.85;3.05;;;13.00;99.90;;;;;;5149152;27;20435;-78
2022/05/11 01:14:33;;;;;;;4.05;2.70;;;13.00;99.90;;;;;;5141172;27;20090;-78
2022/05/11 01:16:59;;;;;;;4.20;2.78;;;13.00;99.90;;;;;;5135235;27;20046;-78
2022/05/11 01:19:32;;;;;;;3.90;2.40;;;13.10;99.90;;;;;;5141347;27;20116;-78
2022/05/11 01:22:25;;;;;;;7.55;4.40;;;13.00;99.90;;;;;;5133951;27;20043;-78
2022/05/11 01:24:51;;;;;;;4.75;3.10;;;13.10;99.90;;;;;;5137533;27;20100;-78
2022/05/11 01:27:26;;;;;;;3.53;2.78;;;13.10;99.90;;;;;;5170059;27;20031;-78
2022/05/11 01:29:53;;;;;;;4.57;3.20;;;13.10;99.90;;;;;;5159263;27;20061;-78
2022/05/11 01:32:20;;;;;;;4.32;2.78;;;13.10;99.90;;;;;;5141490;27;20039;-77
2022/05/11 01:34:48;;;;;;;2.67;2.35;;;13.20;99.90;;;;;;5142107;28;20063;-78
2022/05/11 01:37:14;;;;;;;3.35;2.15;;;13.10;99.90;;;;;;5161115;27;20124;-78
2022/05/11 01:39:40;;;;;;;2.85;2.20;;;13.10;99.90;;;;;;5180319;27;20034;-78
2022/05/11 01:42:06;;;;;;;2.80;2.22;;;13.10;99.90;;;;;;5149514;27;20050;-78
2022/05/11 01:44:32;;;;;;;2.78;2.35;;;13.10;99.90;;;;;;5135118;27;20042;-78
2022/05/11 01:46:58;;;;;;;5.40;2.88;;;13.00;99.90;;;;;;5122368;27;20031;-78
2022/05/11 01:49:24;;;;;;;5.18;3.08;;;13.00;99.90;;;;;;5124945;27;20050;-78
2022/05/11 01:51:51;;;;;;;3.15;2.40;;;13.00;99.90;;;;;;5151780;27;20397;-72
2022/05/11 01:54:17;;;;;;;3.08;2.30;;;13.00;99.90;;;;;;5137112;27;20122;-72
2022/05/11 01:56:43;;;;;;;3.65;2.50;;;13.00;99.90;;;;;;5143622;27;20107;-72
2022/05/11 01:59:09;;;;;;;3.47;2.70;;;13.00;99.90;;;;;;5141236;27;20038;-72
2022/05/11 02:01:36;;;;;;;;;;;13.00;99.90;;;;;;5136840;27;20134;-72
2022/05/11 02:04:03;;;;;;;;;;;13.00;99.90;;;;;;5136308;27;19940;-72
2022/05/11 02:09:13;;;;;;;3.75;2.28;;;12.90;99.90;;;;;;5133020;27;20190;-72
2022/05/11 02:11:39;;;;;;;2.50;2.10;;;12.90;99.90;;;;;;5145788;27;20056;-72
2022/05/11 02:14:05;;;;;;;4.22;2.65;;;12.90;99.90;;;;;;5133746;27;20031;-72
2022/05/11 02:16:32;;;;;;;3.15;2.50;;;12.90;99.90;;;;;;5118915;27;20038;-72
2022/05/11 02:18:58;;;;;;;3.90;2.25;;;12.90;99.90;;;;;;5139107;27;20045;-72
2022/05/11 02:21:24;;;;;;;3.58;2.05;;;12.80;99.90;;;;;;5116645;27;20043;-72
2022/05/11 02:23:51;;;;;;;3.95;2.90;;;12.90;99.90;;;;;;5120658;27;20485;-72
2022/05/11 02:26:21;;;;;;;4.53;2.30;;;12.80;99.90;;;;;;5120907;27;20071;-72
2022/05/11 02:28:48;;;;;;;5.22;2.80;;;12.80;99.90;;;;;;5135741;27;20035;-72
2022/05/11 02:31:14;;;;;;;2.78;2.05;;;12.80;99.90;;;;;;5120346;27;20051;-72
2022/05/11 02:33:41;;;;;;;4.38;2.30;;;12.80;99.90;;;;;;5150332;27;20084;-72
2022/05/11 02:36:06;;;;;;;;;;;12.80;99.90;;;;;;5147821;27;20066;-72
2022/05/11 02:38:35;;;;;;;3.88;2.47;;;12.80;99.90;;;;;;5150738;27;19966;-78
2022/05/11 02:41:02;;;;;;;3.90;2.47;;;12.80;99.90;;;;;;5145301;27;20070;-78
2022/05/11 02:43:28;;;;;;;2.90;2.17;;;12.80;99.90;;;;;;5141016;27;20043;-78
2022/05/11 02:45:54;;;;;;;6.07;3.03;;;12.80;99.90;;;;;;5132602;27;20078;-78
2022/05/11 02:48:23;;;;;;;3.15;2.53;;;12.80;99.90;;;;;;5115883;27;20043;-78
2022/05/11 02:50:55;;;;;;;2.60;2.13;;;12.90;99.90;;;;;;5134225;27;20046;-78
2022/05/11 02:53:23;;;;;;;3.17;2.22;;;12.90;99.90;;;;;;5148614;27;20054;-78
2022/05/11 02:55:50;;;;;;;2.60;2.03;;;12.90;99.90;;;;;;5136466;27;20031;-78
2022/05/11 02:58:18;;;;;;;3.50;1.90;;;12.80;99.90;;;;;;5127011;27;20038;-78
2022/05/11 03:00:47;;;;;;;3.28;2.20;;;12.80;99.90;;;;;;5153420;27;20045;-78
2022/05/11 03:03:15;;;;;;;2.85;2.35;;;12.80;99.90;;;;;;5141033;27;20045;-78
2022/05/11 03:05:42;;;;;;;3.15;2.10;;;12.80;99.90;;;;;;5144116;27;20042;-78
2022/05/11 03:08:11;;;;;;;4.10;2.88;;;12.80;99.90;;;;;;5146969;27;20044;-78
2022/05/11 03:10:39;;;;;;;4.72;3.72;;;12.80;99.90;;;;;;5139949;27;20031;-72
2022/05/11 03:13:05;;;;;;;5.30;2.80;;;12.80;99.90;;;;;;5119223;27;20053;-72
2022/05/11 03:15:31;;;;;;;3.88;2.70;;;12.90;99.90;;;;;;5133664;27;20035;-72
2022/05/11 03:17:57;;;;;;;3.88;2.80;;;12.80;99.90;;;;;;5142018;27;20070;-72
2022/05/11 03:20:25;;;;;;;4.40;3.13;;;12.90;99.90;;;;;;5122216;27;20082;-72
2022/05/11 03:22:52;;;;;;;5.95;3.33;;;12.90;99.90;;;;;;5139697;27;20087;-71
2022/05/11 03:25:18;;;;;;;7.03;3.40;;;12.90;99.90;;;;;;5133785;27;20043;-72
2022/05/11 03:27:44;;;;;;;6.22;4.10;;;12.90;99.90;;;;;;5110105;27;20150;-72
2022/05/11 03:30:11;;;;;;;3.90;2.83;;;12.90;99.90;;;;;;5142198;27;20482;-72
2022/05/11 03:35:21;;;;;;;5.35;3.15;;;13.00;99.90;;;;;;5137834;27;20556;-72
2022/05/11 03:37:46;;;;;;;3.58;2.47;;;13.00;99.90;;;;;;5134010;27;20132;-72
2022/05/11 03:40:13;;;;;;;4.90;2.78;;;13.00;99.90;;;;;;5144670;27;20035;-71
2022/05/11 03:42:40;;;;;;;3.05;2.50;;;13.00;99.90;;;;;;5134816;27;20367;-71
2022/05/11 03:45:11;;;;;;;2.95;1.80;;;12.90;99.90;;;;;;5135794;27;20074;-72
2022/05/11 03:47:37;;;;;;;3.35;2.13;;;13.00;99.90;;;;;;5147080;27;20046;-72
2022/05/11 03:50:04;;;;;;;4.25;2.47;;;12.90;99.90;;;;;;5142898;27;20061;-72
2022/05/11 03:52:30;;;;;;;3.35;2.17;;;13.00;99.90;;;;;;5148764;27;20059;-72
2022/05/11 03:54:56;;;;;;;3.35;2.22;;;12.90;99.90;;;;;;5128094;27;20405;-72
2022/05/11 03:57:21;;;;;;;4.07;2.50;;;13.00;99.90;;;;;;5144489;27;20173;-73
2022/05/11 03:59:47;;;;;;;4.15;2.55;;;12.90;99.90;;;;;;5149741;27;20038;-72
2022/05/11 04:02:13;;;;;;;3.65;2.20;;;12.90;99.90;;;;;;5131310;27;20047;-72
2022/05/11 04:04:38;;;;;;;4.28;2.53;;;13.00;99.90;;;;;;5115055;27;20043;-72
2022/05/11 04:07:04;;;;;;;5.43;2.55;;;13.00;99.90;;;;;;5150739;27;20099;-73
2022/05/11 04:09:30;;;;;;;4.68;2.60;;;13.00;99.90;;;;;;5141979;27;20404;-72
2022/05/11 04:11:55;;;;;;;3.70;2.28;;;13.00;99.90;;;;;;5139159;27;20095;-72
2022/05/11 04:14:21;;;;;;;7.60;3.72;;;13.00;99.90;;;;;;5142043;27;20046;-72
2022/05/11 04:16:53;;;;;;;5.20;3.00;;;13.00;99.90;;;;;;5140278;27;20099;-72
2022/05/11 04:19:19;;;;;;;6.85;3.13;;;13.00;99.90;;;;;;5135159;27;20100;-73
2022/05/11 04:21:45;;;;;;;5.63;2.83;;;13.00;99.90;;;;;;5132252;27;20039;-72
2022/05/11 04:24:10;;;;;;;4.38;3.20;;;13.00;99.90;;;;;;5150440;27;20114;-72
2022/05/11 04:26:36;;;;;;;4.53;3.03;;;13.10;99.90;;;;;;5138511;27;20047;-72
2022/05/11 04:29:02;;;;;;;4.10;2.65;;;13.10;99.90;;;;;;5139170;27;20126;-72
2022/05/11 04:31:27;;;;;;;3.85;2.30;;;13.10;99.90;;;;;;5138159;27;20073;-72
2022/05/11 04:33:53;;;;;;;3.58;1.98;;;13.10;99.90;;;;;;5121744;27;20046;-72
2022/05/11 04:36:20;;;;;;;3.85;2.63;;;13.10;99.90;;;;;;5137461;27;20042;-72
2022/05/11 04:38:46;;;;;;;5.72;2.60;;;13.10;99.90;;;;;;5151559;27;20083;-72
2022/05/11 04:41:12;;;;;;;4.93;2.90;;;13.10;99.90;;;;;;5150119;27;20047;-72
2022/05/11 04:43:38;;;;;;;4.68;2.70;;;13.20;99.90;;;;;;5153079;27;20068;-72
2022/05/11 04:46:04;;;;;;;6.88;3.22;;;13.20;99.90;;;;;;5133587;27;20125;-72
2022/05/11 04:48:29;;;;;;;5.50;3.00;;;13.20;99.90;;;;;;5130911;27;20057;-72
2022/05/11 04:51:00;;;;;;;5.15;3.05;;;13.20;99.90;;;;;;5142826;27;20082;-72
2022/05/11 04:53:26;;;;;;;5.32;2.90;;;13.20;99.90;;;;;;5140364;27;20374;-72
2022/05/11 04:55:52;;;;;;;6.45;3.42;;;13.20;99.90;;;;;;5129023;27;20207;-71
2022/05/11 04:58:17;;;;;;;4.65;3.17;;;13.30;99.90;;;;;;5141913;27;20143;-72
2022/05/11 05:00:43;;;;;;;6.95;2.95;;;13.30;99.90;;;;;;5142420;27;20458;-72
2022/05/11 05:03:11;;;;;;;8.77;3.15;;;13.30;99.90;;;;;;5132328;27;20397;-71
2022/05/11 05:05:38;;;;;;;4.45;2.90;;;13.30;99.90;;;;;;5123506;27;20043;-72
2022/05/11 05:08:04;;;;;;;3.35;2.22;;;13.30;99.90;;;;;;5139010;27;20118;-71
2022/05/11 05:10:30;;;;;;;4.63;2.65;;;13.30;99.90;;;;;;5133754;27;20039;-70
2022/05/11 05:13:01;;;;;;;4.95;2.75;;;13.40;99.90;;;;;;5135153;27;20043;-70
2022/05/11 05:15:27;;;;;;;3.00;2.10;;;13.40;99.90;;;;;;5122943;27;20054;-77
2022/05/11 05:17:52;;;;;;;4.10;2.35;;;13.40;99.90;;;;;;5143345;27;20034;-78
2022/05/11 05:20:18;;;;;;;7.03;2.85;;;13.40;99.90;;;;;;5137803;27;20031;-77
2022/05/11 05:22:44;;;;;;;6.55;2.90;;;13.40;99.90;;;;;;5147028;27;20039;-78
2022/05/11 05:25:10;;;;;;;5.40;1.90;;;13.50;99.90;;;;;;5127673;28;20043;-78
2022/05/11 05:27:36;;;;;;;4.97;2.80;;;13.50;99.90;;;;;;5131852;27;20042;-78
2022/05/11 05:32:47;;;;;;;3.65;2.20;;;13.50;99.90;;;;;;5150649;27;20560;-78
2022/05/11 05:35:16;;;;;;;5.10;2.70;;;13.60;99.90;;;;;;5137082;27;20043;-79
2022/05/11 05:37:43;;;;;;;5.90;2.88;;;13.60;99.90;;;;;;5137816;27;20031;-79
2022/05/11 05:40:09;;;;;;;3.88;2.33;;;13.60;99.90;;;;;;5142810;27;20046;-79
2022/05/11 05:42:36;;;;;;;5.75;2.53;;;13.70;99.90;;;;;;5134933;27;20466;-78
2022/05/11 05:45:03;;;;;;;4.07;2.00;;;13.70;99.90;;;;;;5123092;27;20085;-79
2022/05/11 05:47:29;;;;;;;3.30;1.90;;;13.70;99.90;;;;;;5143727;27;20049;-78
2022/05/11 05:49:55;;;;;;;4.93;2.00;;;13.80;99.90;;;;;;5117535;27;20047;-78
2022/05/11 05:52:24;;;;;;;6.95;2.30;;;13.80;99.90;;;;;;5116350;28;20047;-78
2022/05/11 05:54:51;;;;;;;6.10;2.55;;;13.80;99.90;;;;;;5138309;27;20047;-78
2022/05/11 05:57:18;;;;;;;6.85;2.72;;;13.90;99.90;;;;;;5140036;27;20047;-78
2022/05/11 05:59:45;;;;;;;6.47;2.63;;;14.00;99.90;;;;;;5133134;27;20480;-78
2022/05/11 06:02:14;;;;;;;6.47;2.80;;;14.00;99.90;;;;;;5119418;27;20373;-78
2022/05/11 06:04:48;;;;;;;5.70;2.65;;;14.00;99.90;;;;;;5134357;27;20126;-77
2022/05/11 06:07:15;;;;;;;6.55;3.35;;;14.10;99.90;;;;;;5120701;27;20062;-78
2022/05/11 06:09:41;;;;;;;4.90;2.40;;;14.10;99.90;;;;;;5141123;27;20039;-78
2022/05/11 06:12:10;;;;;;;5.72;2.80;;;14.20;99.90;;;;;;5134741;27;20133;-78
2022/05/11 06:14:38;;;;;;;5.82;2.50;;;14.30;99.90;;;;;;5140491;27;20027;-78
2022/05/11 06:17:11;;;;;;;4.85;2.42;;;14.30;99.90;;;;;;5134660;27;20043;-78
2022/05/11 06:19:39;;;;;;;6.70;3.03;;;14.40;99.90;;;;;;5134527;27;20437;-79
2022/05/11 06:22:04;;;;;;;4.18;2.40;;;14.40;99.90;;;;;;5144356;27;20038;-78
2022/05/11 06:24:30;;;;;;;8.48;3.00;;;14.50;99.90;;;;;;5141092;27;20118;-79
2022/05/11 06:26:56;;;;;;;7.20;3.00;;;14.60;99.90;;;;;;5136968;27;20308;-78
2022/05/11 06:29:22;;;;;;;7.13;2.60;;;14.70;99.90;;;;;;5136903;27;20047;-78
2022/05/11 06:31:48;;;;;;;4.90;2.47;;;14.80;99.90;;;;;;5133904;27;20023;-78
2022/05/11 06:34:15;;;;;;;8.63;3.40;;;14.90;99.90;;;;;;5134549;27;20043;-78
2022/05/11 06:36:42;;;;;;;9.05;3.53;;;15.00;99.90;;;;;;5151772;27;20038;-78
2022/05/11 06:39:08;;;;;;;5.88;2.83;;;15.10;99.90;;;;;;5142345;27;20031;-78
2022/05/11 06:41:34;;;;;;;;;;;15.20;99.90;;;;;;5137788;27;20050;-78
2022/05/11 06:44:00;;;;;;;9.52;3.63;;;15.20;99.90;;;;;;5154207;27;19919;-78
2022/05/11 06:46:26;;;;;;;11.30;3.88;;;15.20;99.90;;;;;;5142435;27;20442;-79
2022/05/11 06:48:52;;;;;;;9.35;3.83;;;15.20;99.90;;;;;;5135830;27;20049;-78
2022/05/11 06:51:20;;;;;;;9.80;3.88;;;15.20;99.90;;;;;;5154650;27;20038;-78
2022/05/11 06:59:24;;;;;;;7.75;3.45;;;15.20;99.90;;;;;;5133673;27;20122;-78
2022/05/11 07:01:55;;;;;;;9.02;3.35;;;15.10;99.90;;;;;;5145007;27;20537;-71
2022/05/11 07:04:24;;;;;;;11.13;3.47;;;15.20;99.90;;;;;;5154101;27;20043;-70
2022/05/11 07:06:52;;;;;;;9.55;3.38;;;15.20;99.90;;;;;;5153451;27;20050;-70
2022/05/11 07:09:19;;;;;;;7.93;3.28;;;15.20;99.90;;;;;;5148819;27;20512;-70
2022/05/11 07:14:28;;;;;;;10.85;3.58;;;15.30;99.90;;;;;;5138744;27;20050;-70
2022/05/11 07:16:54;;;;;;;11.45;3.78;;;15.30;99.90;;;;;;5155189;27;20043;-70
2022/05/11 07:19:23;;;;;;;9.80;3.60;;;15.40;99.90;;;;;;5153472;27;20407;-70
2022/05/11 07:21:49;;;;;;;9.40;3.80;;;15.50;99.90;;;;;;5153385;27;20087;-70
2022/05/11 07:24:15;;;;;;;14.68;3.78;;;15.50;99.90;;;;;;5154335;27;20057;-70
2022/05/11 07:26:41;;;;;;;10.05;4.30;;;15.70;99.90;;;;;;5152747;27;20046;-70
2022/05/11 07:29:07;;;;;;;10.27;3.80;;;15.60;99.90;;;;;;5154559;27;20034;-70
2022/05/11 07:31:32;;;;;;;10.45;3.70;;;15.60;99.90;;;;;;5152637;27;20442;-70
2022/05/11 07:33:58;;;;;;;10.93;3.83;;;15.70;99.90;;;;;;5124957;27;20035;-70
2022/05/11 07:36:24;;;;;;;7.82;3.00;;;15.70;99.90;;;;;;5129649;27;20126;-70
2022/05/11 07:38:50;;;;;;;;;;;15.90;99.90;;;;;;5135522;27;20439;-70
2022/05/11 07:41:16;;;;;;;7.57;3.15;;;16.00;99.90;;;;;;5152805;27;19914;-70
2022/05/11 07:43:42;;;;;;;14.55;3.67;;;16.10;99.90;;;;;;5138562;27;20043;-70
2022/05/11 07:46:08;;;;;;;15.20;3.33;;;16.30;99.90;;;;;;5144597;27;20326;-70
2022/05/11 07:48:33;;;;;;;8.15;3.25;;;16.50;99.90;;;;;;5135677;27;20043;-70
2022/05/11 07:50:59;;;;;;;7.75;2.70;;;16.60;99.90;;;;;;5118572;27;20035;-71
2022/05/11 07:53:25;;;;;;;9.23;2.58;;;16.70;99.90;;;;;;5133077;27;20059;-71
2022/05/11 07:59:52;;;;;;;11.43;3.45;;;16.80;99.90;;;;;;5116582;27;20051;-72
2022/05/11 08:01:21;;;;;;;9.13;3.05;;;16.60;99.90;;;;;;5147720;27;20068;-70
2022/05/11 08:03:46;;;;;;;8.82;2.50;;;16.60;99.90;;;;;;5131806;27;21116;-71
2022/05/11 08:06:12;;;;;;;8.50;2.40;;;16.70;99.90;;;;;;5146532;27;20046;-71
2022/05/11 08:08:38;;;;;;;8.65;2.40;;;17.00;99.90;;;;;;5144377;27;20038;-78
2022/05/11 08:11:04;;;;;;;12.05;2.50;;;17.20;99.90;;;;;;5129609;27;20072;-78
2022/05/11 08:13:31;;;;;;;12.57;3.08;;;17.30;99.90;;;;;;5138845;27;20046;-78
2022/05/11 08:15:56;;;;;;;10.13;2.47;;;17.20;99.90;;;;;;5136922;27;20046;-78
2022/05/11 08:18:22;;;;;;;13.80;2.92;;;17.10;99.90;;;;;;5140173;27;20027;-77
2022/05/11 08:20:49;;;;;;;10.30;2.83;;;17.20;99.90;;;;;;5150506;27;20383;-78
2022/05/11 08:23:15;;;;;;;9.98;2.92;;;17.10;99.90;;;;;;5169782;27;20485;-77
2022/05/11 08:25:43;;;;;;;13.43;3.35;;;17.30;99.90;;;;;;5152730;27;20038;-79
2022/05/11 08:28:17;;;;;;;8.90;2.67;;;17.60;99.90;;;;;;5135268;27;20125;-78
2022/05/11 08:33:29;;;;;;;10.73;2.85;;;17.60;99.90;;;;;;5145391;27;20050;-78
2022/05/11 08:35:59;;;;;;;10.13;2.78;;;17.60;99.90;;;;;;5133381;27;20364;-71
2022/05/11 08:38:28;;;;;;;12.00;3.10;;;17.40;99.90;;;;;;5142747;27;20421;-69
2022/05/11 08:41:13;;;;;;;9.63;2.45;;;17.30;99.90;;;;;;5133172;27;20039;-69
2022/05/11 08:43:40;;;;;;;8.48;2.80;;;17.30;99.90;;;;;;5139182;27;20125;-70
2022/05/11 08:46:50;;;;;;;11.13;2.72;;;17.10;99.90;;;;;;5137868;27;20607;-69
2022/05/11 08:49:34;;;;;;;9.05;2.40;;;17.30;99.90;;;;;;5130179;27;20039;-70
2022/05/11 08:52:05;;;;;;;8.68;2.42;;;17.30;99.90;;;;;;5142774;27;20363;-69
2022/05/11 08:54:48;;;;;;;11.07;2.50;;;17.20;99.90;;;;;;5152872;27;20050;-69
2022/05/11 08:57:23;;;;;;;6.90;2.33;;;17.20;99.90;;;;;;5149067;27;20030;-69
2022/05/11 08:59:51;;;;;;;9.00;2.70;;;17.20;99.90;;;;;;5124462;27;20374;-69
2022/05/11 09:02:38;;;;;;;9.32;2.08;;;17.30;99.90;;;;;;5130510;27;20047;-69
2022/05/11 09:05:05;;;;;;;6.47;2.10;;;17.40;99.90;;;;;;5113812;27;20133;-69
2022/05/11 09:07:36;;;;;;;9.23;2.53;;;17.50;99.90;;;;;;5137760;27;20099;-70
2022/05/11 09:10:04;;;;;;;10.82;2.45;;;17.40;99.90;;;;;;5134915;27;20417;-70
2022/05/11 09:12:30;;;;;;;10.60;2.60;;;17.40;99.90;;;;;;5131688;27;20199;-70
2022/05/11 09:14:59;;;;;;;11.65;2.58;;;17.30;99.90;;;;;;5133609;27;20144;-70
2022/05/11 09:17:31;;;;;;;14.27;3.17;;;17.20;99.90;;;;;;5130727;27;20484;-70
2022/05/11 09:20:17;;;;;;;13.95;2.63;;;17.40;99.90;;;;;;5141775;27;20078;-70
2022/05/11 09:22:52;;;;;;;10.18;2.05;;;17.50;99.90;;;;;;5151306;27;20078;-70
2022/05/11 09:25:20;;;;;;;8.95;2.60;;;17.60;99.90;;;;;;5150844;27;20125;-70
2022/05/11 09:27:47;;;;;;;8.10;2.33;;;17.80;99.90;;;;;;5141797;27;20035;-70
2022/05/11 09:30:26;;;;;;;7.13;2.08;;;18.10;99.90;;;;;;5130978;27;20046;-77
2022/05/11 09:33:15;;;;;;;7.95;2.13;;;18.80;99.90;;;;;;5134375;27;20154;-77
2022/05/11 09:35:41;;;;;;;14.50;2.53;;;19.00;99.90;;;;;;5151077;27;20081;-70
2022/05/11 09:38:26;;;;;;;;;;;19.10;99.90;;;;;;5134215;27;20131;-70
2022/05/11 09:41:28;;;;;;;9.60;2.63;;;19.40;99.90;;;;;;5150946;27;20334;-71
2022/05/11 09:43:58;;;;;;;8.90;2.40;;;19.60;99.90;;;;;;5133746;27;20046;-71
2022/05/11 09:46:27;;;;;;;7.00;1.95;;;19.70;99.90;;;;;;5146397;27;20151;-71
2022/05/11 09:49:13;;;;;;;8.38;2.05;;;19.80;99.90;;;;;;5133547;27;20037;-72
2022/05/11 09:51:38;;;;;;;9.13;2.80;;;19.70;99.90;;;;;;5150831;27;20049;-71
2022/05/11 09:54:27;;;;;;;;;;;19.20;99.90;;;;;;5120474;27;20039;-72
2022/05/11 09:57:18;;;;;;;5.97;1.50;;;19.20;99.90;;;;;;5143779;27;19942;-71
2022/05/11 09:59:46;;;;;;;8.52;1.80;;;19.50;99.90;;;;;;5137098;27;20042;-78
2022/05/11 10:02:32;;;;;;;9.55;2.30;;;19.00;99.20;;;;;;5154783;27;20085;-77
2022/05/11 10:05:01;;;;;;;8.50;2.03;;;18.90;99.00;;;;;;5137779;27;20456;-78
2022/05/11 10:07:30;;;;;;;10.38;2.13;;;19.10;99.30;;;;;;5155083;27;20331;-77
2022/05/11 10:10:12;;;;;;;6.18;1.75;;;19.40;99.70;;;;;;5126482;27;20499;-78
2022/05/11 10:12:39;;;;;;;6.82;1.90;;;19.70;98.30;;;;;;5134604;27;20098;-77
2022/05/11 10:24:24;;;;;;;7.07;1.85;;;19.30;97.70;;;;;;5143722;27;20570;-77
2022/05/11 10:27:09;;;;;;;;;;;19.80;97.10;;;;;;5139750;27;20062;-77
2022/05/11 10:29:51;;;;;;;7.50;1.70;;;19.80;96.50;;;;;;5136244;27;19958;-78
2022/05/11 10:32:27;;;;;;;6.45;1.50;;;19.60;96.70;;;;;;5127540;27;20046;-77
2022/05/11 10:35:11;;;;;;;5.78;1.50;;;19.50;97.50;;;;;;5145450;27;20441;-78
2022/05/11 10:38:15;;;;;;;7.93;1.92;;;19.60;98.10;;;;;;5142334;27;20073;-77
2022/05/11 10:41:35;;;;;;;6.45;1.77;;;19.80;98.10;;;;;;5151891;27;20078;-77
2022/05/11 10:44:38;;;;;;;8.27;1.95;;;19.70;97.20;;;;;;5033371;28;20164;-77
2022/05/11 10:47:23;;;;;;;6.65;2.25;;;19.80;97.00;;;;;;5154131;27;20477;-77
2022/05/11 10:50:08;;;;;;;11.75;2.05;;;19.30;96.80;;;;;;5156137;27;20087;-76
2022/05/11 10:53:04;;;;;;;8.13;2.00;;;19.10;97.50;;;;;;5156124;27;20042;-76
2022/05/11 10:56:00;;;;;;;8.35;1.90;;;18.70;98.30;;;;;;5149216;27;20058;-77
2022/05/11 10:59:01;;;;;;;7.35;1.83;;;18.90;98.90;;;;;;5152727;27;20034;-78
2022/05/11 11:01:52;;;;;;;8.15;2.20;;;19.00;98.60;;;;;;5141387;27;20045;-77
2022/05/11 11:04:43;;;;;;;9.98;2.22;;;18.80;98.60;;;;;;5100016;27;20058;-77
2022/05/11 11:07:21;;;;;;;8.02;2.15;;;18.90;99.90;;;;;;5134853;27;20053;-76
2022/05/11 11:09:53;;;;;;;8.95;2.25;;;18.70;99.90;;;;;;5156194;27;20101;-76
2022/05/11 11:12:18;;;;;;;10.70;2.67;;;18.50;99.90;;;;;;5141925;27;20036;-77
2022/05/11 11:14:47;;;;;;;;;;;18.40;99.90;;;;;;5139897;27;20042;-77
2022/05/11 11:17:18;;;;;;;10.02;2.60;;;18.40;99.90;;;;;;5132139;27;19923;-76
2022/05/11 11:19:49;;;;;;;8.68;2.42;;;18.30;99.90;;;;;;5142456;27;20062;-77
2022/05/11 11:22:15;;;;;;;9.85;2.55;;;18.40;99.90;;;;;;5126415;27;20055;-77
2022/05/11 11:24:43;;;;;;;;;;;18.60;99.90;;;;;;5136266;27;20051;-77
2022/05/11 11:27:09;;;;;;;9.15;2.20;;;18.50;99.90;;;;;;5154175;27;20289;-77
2022/05/11 11:29:59;;;;;;;9.73;2.40;;;18.20;99.90;;;;;;5136758;27;20508;-77
2022/05/11 11:32:25;;;;;;;7.90;2.50;;;18.10;99.90;;;;;;5153549;27;20401;-77
2022/05/11 11:35:11;;;;;;;;;;;18.30;99.90;;;;;;5135481;27;20092;-77
2022/05/11 11:37:39;;;;;;;8.18;2.25;;;18.30;99.90;;;;;;5149635;27;20277;-77
2022/05/11 11:40:21;;;;;;;6.63;2.05;;;18.80;99.90;;;;;;5155097;27;20050;-77
2022/05/11 11:42:47;;;;;;;9.05;2.17;;;18.70;99.90;;;;;;5154660;27;20043;-77
2022/05/11 11:45:33;;;;;;;;;;;18.80;99.90;;;;;;5171679;27;20115;-77
2022/05/11 11:48:04;;;;;;;8.05;2.10;;;19.00;99.90;;;;;;5135824;27;19962;-77
2022/05/11 11:50:47;;;;;;;8.23;2.45;;;19.00;98.40;;;;;;5137282;27;20037;-77
2022/05/11 11:53:22;;;;;;;8.90;2.10;;;18.80;98.50;;;;;;5137354;27;20123;-77
2022/05/11 11:55:48;;;;;;;6.40;1.75;;;19.00;98.30;;;;;;5153687;27;20357;-77
2022/05/11 11:58:20;;;;;;;;;;;18.80;97.90;;;;;;5155552;27;20036;-77
2022/05/11 12:00:46;;;;;;;7.85;1.80;;;18.90;97.50;;;;;;5153149;27;20010;-76
2022/05/11 12:03:23;;;;;;;;;;;19.70;98.30;;;;;;5153804;27;20114;-77
2022/05/11 12:15:01;;;;;;;7.97;1.60;;;19.70;95.50;;;;;;5143323;27;19996;-76
2022/05/11 12:17:05;;;;;;;6.57;1.60;;;19.80;93.50;;;;;;5177931;27;20042;-77
2022/05/11 12:19:38;;;;;;;5.25;1.50;;;20.10;93.40;;;;;;5179146;27;20064;-78
2022/05/11 12:22:12;;;;;;;5.03;1.33;;;20.20;92.90;;;;;;5160490;27;20050;-76
2022/05/11 12:24:44;;;;;;;4.28;0.95;;;20.40;93.70;;;;;;5172658;27;20099;-76
2022/05/11 12:27:27;;;;;;;4.30;1.27;;;20.70;92.90;;;;;;5164680;27;20035;-76
2022/05/11 12:30:00;;;;;;;4.90;1.40;;;21.20;92.90;;;;;;5142125;27;20082;-70
2022/05/11 12:32:31;;;;;;;5.25;1.17;;;21.10;92.20;;;;;;5133105;27;20838;-70
2022/05/11 12:35:19;;;;;;;5.75;1.23;;;21.20;91.80;;;;;;5149829;27;20050;-70
2022/05/11 12:38:12;;;;;;;6.07;1.10;;;21.00;90.70;;;;;;5145014;27;20084;-72
2022/05/11 12:40:48;;;;;;;3.90;1.10;;;21.10;91.30;;;;;;5143332;27;20086;-78
2022/05/11 12:43:33;;;;;;;4.78;1.33;;;21.20;91.00;;;;;;5142681;27;20043;-78
2022/05/11 12:46:03;;;;;;;4.43;1.10;;;21.10;90.40;;;;;;5153113;27;20042;-78
2022/05/11 12:49:02;;;;;;;5.00;1.00;;;20.90;90.30;;;;;;5135077;27;20077;-77
2022/05/11 12:51:33;;;;;;;4.38;1.13;;;21.40;91.20;;;;;;5152339;27;20045;-78
2022/05/11 12:54:02;;;;;;;3.10;0.95;;;21.60;90.10;;;;;;5139288;27;20177;-78
2022/05/11 12:56:33;;;;;;;5.45;0.98;;;21.40;85.90;;;;;;5147463;27;20064;-78
2022/05/11 12:59:19;;;;;;;4.18;0.80;;;21.20;81.00;;;;;;5153295;27;20039;-78
2022/05/11 13:01:45;;;;;;;5.78;1.10;;;21.20;79.90;;;;;;5151819;27;20042;-71
2022/05/11 13:04:23;;;;;;;4.05;1.38;;;21.20;80.90;;;;;;5139727;27;20139;-71
2022/05/11 13:06:53;;;;;;;5.50;1.33;;;21.00;83.60;;;;;;5123957;27;20439;-71
2022/05/11 13:09:43;;;;;;;9.05;1.40;;;21.20;86.10;;;;;;5151165;27;20351;-72
2022/05/11 13:12:13;;;;;;;4.28;1.23;;;21.00;85.20;;;;;;5150169;27;20047;-72
2022/05/11 13:14:49;;;;;;;8.00;1.40;;;20.50;83.60;;;;;;5141332;27;20042;-71
2022/05/11 13:17:47;;;;;;;5.77;1.37;;;20.50;84.10;;;;;;5151358;27;20034;-71
2022/05/11 13:20:23;;;;;;;7.15;1.50;;;20.80;86.00;;;;;;5151276;27;20317;-71
2022/05/11 13:22:54;;;;;;;6.68;1.58;;;20.80;87.00;;;;;;5152809;27;20484;-72
2022/05/11 13:25:38;;;;;;;6.90;1.67;;;20.70;86.10;;;;;;5151272;27;20041;-71
2022/05/11 13:28:24;;;;;;;4.60;1.38;;;20.80;88.10;;;;;;5151398;27;20039;-72
2022/05/11 13:30:53;;;;;;;5.47;1.80;;;20.80;88.20;;;;;;5151260;27;20051;-71
2022/05/11 13:33:34;;;;;;;6.55;1.50;;;20.60;88.70;;;;;;5151055;27;20054;-72
2022/05/11 13:36:36;;;;;;;6.28;1.70;;;20.40;90.10;;;;;;5153514;27;20726;-72
2022/05/11 13:39:12;;;;;;;6.63;1.55;;;20.30;90.60;;;;;;5089690;27;20051;-71
2022/05/11 13:42:00;;;;;;;8.88;1.70;;;20.60;90.20;;;;;;5152912;27;20046;-72
2022/05/11 13:44:40;;;;;;;9.55;2.00;;;20.40;90.30;;;;;;5155712;27;20043;-71
2022/05/11 13:50:45;;;;;;;10.07;1.77;;;19.60;91.80;;;;;;5137248;27;20057;-77
2022/05/11 13:53:33;;;;;;;9.07;1.85;;;19.20;92.40;;;;;;5151154;27;20327;-78
2022/05/11 13:56:01;;;;;;;7.38;1.70;;;19.20;93.30;;;;;;5150492;27;20500;-78
2022/05/11 13:58:33;;;;;;;6.28;1.88;;;19.00;93.50;;;;;;5117743;27;20085;-78